Time;durP1;ratioP1;P1;durP2;ratioP2;P2;SDS_P1;SDS_P2;PMS_P1;PMS_P2;Temp;Humidity;BMP_temperature;BMP_pressure;BME280_temperature;BME280_humidity;BME280_pressure;Samples;Min_cycle;Max_cycle;Signal;HPM_P1;HPM_P2
2022/02/14 00:01:26;;;;;;;25.00;8.28;;;;;;;-1.73;62.75;102370.17;1695794;83;25782;-62
2022/02/14 00:03:52;;;;;;;13.58;7.20;;;;;;;-1.82;61.38;102374.23;1668977;84;26023;-62
2022/02/14 00:06:19;;;;;;;14.73;7.72;;;;;;;-1.87;61.55;102382.66;1691151;83;25822;-62
2022/02/14 00:08:46;;;;;;;18.05;7.87;;;;;;;-1.87;61.39;102372.10;1690486;83;25817;-61
2022/02/14 00:11:13;;;;;;;15.25;8.53;;;;;;;-1.81;61.18;102378.63;1696008;83;27473;-62
2022/02/14 00:13:40;;;;;;;15.55;8.03;;;;;;;-1.75;61.65;102377.26;1694505;83;25946;-61
2022/02/14 00:16:07;;;;;;;14.05;7.08;;;;;;;-1.74;61.49;102382.51;1697555;83;25502;-62
2022/02/14 00:18:33;;;;;;;13.75;7.20;;;;;;;-1.69;61.48;102377.18;1699565;83;26664;-61
2022/02/14 00:21:01;;;;;;;16.07;7.70;;;;;;;-1.63;61.40;102374.92;1695494;83;25765;-62
2022/02/14 00:23:27;;;;;;;14.93;8.30;;;;;;;-1.58;61.31;102375.72;1675532;84;27514;-62
2022/02/14 00:25:56;;;;;;;16.52;7.58;;;;;;;-1.52;61.31;102370.36;1691021;84;25826;-62
2022/02/14 00:28:23;;;;;;;18.02;7.90;;;;;;;-1.54;61.04;102372.59;1689921;82;26539;-62
2022/02/14 00:30:50;;;;;;;15.30;6.87;;;;;;;-1.52;61.04;102362.44;1695057;83;25837;-62
2022/02/14 00:33:17;;;;;;;10.85;6.08;;;;;;;-1.47;61.15;102354.47;1697938;83;25871;-62
2022/02/14 00:35:45;;;;;;;14.55;6.50;;;;;;;-1.40;61.17;102349.98;1694077;83;28747;-62
2022/02/14 00:38:12;;;;;;;15.32;6.30;;;;;;;-1.40;61.06;102345.59;1697773;84;25804;-62
2022/02/14 00:40:39;;;;;;;12.30;6.55;;;;;;;-1.38;61.08;102334.55;1696115;84;25486;-62
2022/02/14 00:43:06;;;;;;;17.75;6.80;;;;;;;-1.36;60.95;102347.75;1688034;83;26442;-62
2022/02/14 00:45:33;;;;;;;16.12;6.95;;;;;;;-1.36;61.03;102334.09;1691307;83;25747;-62
2022/02/14 00:48:00;;;;;;;15.72;6.78;;;;;;;-1.34;60.97;102330.09;1694772;84;27453;-62
2022/02/14 00:50:27;;;;;;;13.08;6.40;;;;;;;-1.35;60.71;102331.87;1696919;84;25831;-62
2022/02/14 00:52:54;;;;;;;11.83;6.08;;;;;;;-1.35;60.85;102327.06;1695802;83;25701;-63
2022/02/14 00:55:21;;;;;;;14.03;7.28;;;;;;;-1.34;60.89;102329.67;1694330;84;26590;-62
2022/02/14 00:57:49;;;;;;;14.43;6.92;;;;;;;-1.30;60.91;102318.61;1694636;84;25769;-62
2022/02/14 01:00:19;;;;;;;20.45;7.72;;;;;;;-1.30;60.97;102320.79;1697245;83;27875;-63
2022/02/14 01:02:46;;;;;;;15.63;6.00;;;;;;;-1.28;60.93;102318.16;1696077;84;25485;-63
2022/02/14 01:05:13;;;;;;;15.45;6.80;;;;;;;-1.30;61.05;102315.51;1699590;83;25686;-62
2022/02/14 01:07:40;;;;;;;17.27;6.97;;;;;;;-1.29;60.96;102313.30;1697103;82;25643;-62
2022/02/14 01:10:10;;;;;;;13.68;6.97;;;;;;;-1.35;61.01;102305.47;1690413;84;25799;-62
2022/02/14 01:12:39;;;;;;;14.38;6.97;;;;;;;-1.42;60.85;102311.28;1695449;84;27472;-62
2022/02/14 01:15:09;;;;;;;14.70;5.50;;;;;;;-1.43;60.98;102304.71;1699536;83;25763;-62
2022/02/14 01:17:38;;;;;;;17.35;6.87;;;;;;;-1.47;61.10;102303.88;1693497;84;25767;-62
2022/02/14 01:20:11;;;;;;;14.38;6.58;;;;;;;-1.48;61.12;102300.81;1698897;84;26435;-61
2022/02/14 01:22:40;;;;;;;16.67;6.47;;;;;;;-1.43;61.30;102298.11;1698890;83;25742;-63
2022/02/14 01:25:10;;;;;;;15.70;6.28;;;;;;;-1.46;61.26;102287.16;1694336;83;28566;-62
2022/02/14 01:27:37;;;;;;;15.13;7.67;;;;;;;-1.53;61.44;102282.86;1694082;84;25765;-62
2022/02/14 01:30:07;;;;;;;15.75;5.78;;;;;;;-1.54;61.63;102282.43;1694220;84;25843;-62
2022/02/14 01:32:33;;;;;;;12.43;6.25;;;;;;;-1.54;61.67;102282.43;1696489;83;25850;-62
2022/02/14 01:35:00;;;;;;;12.20;6.42;;;;;;;-1.53;61.91;102280.66;1693352;82;25848;-62
2022/02/14 01:37:27;;;;;;;17.37;5.80;;;;;;;-1.50;61.93;102276.20;1696642;82;27464;-62
2022/02/14 01:39:54;;;;;;;14.13;7.97;;;;;;;-1.46;61.73;102276.59;1676956;84;25850;-62
2022/02/14 01:42:21;;;;;;;18.17;8.33;;;;;;;-1.47;61.52;102274.84;1688104;83;26705;-62
2022/02/14 01:44:52;;;;;;;16.35;6.58;;;;;;;-1.48;61.56;102274.88;1698278;83;26447;-62
2022/02/14 01:47:23;;;;;;;11.80;5.87;;;;;;;-1.51;62.22;102271.81;1694906;84;25716;-62
2022/02/14 01:49:53;;;;;;;10.45;5.58;;;;;;;-1.61;61.65;102263.59;1693099;83;27505;-62
2022/02/14 01:52:23;;;;;;;11.25;5.72;;;;;;;-1.70;61.80;102259.78;1694899;84;25822;-61
2022/02/14 01:54:51;;;;;;;10.82;5.70;;;;;;;-1.72;62.48;102264.20;1694225;84;25805;-61
2022/02/14 01:57:19;;;;;;;8.85;5.15;;;;;;;-1.77;62.36;102255.89;1693006;84;25780;-61
2022/02/14 01:59:47;;;;;;;11.65;5.58;;;;;;;-1.81;62.61;102259.48;1699558;82;25808;-62
2022/02/14 02:02:15;;;;;;;9.98;5.10;;;;;;;-1.85;62.42;102260.39;1698253;83;28182;-62
2022/02/14 02:04:44;;;;;;;13.68;6.35;;;;;;;-1.82;62.62;102258.16;1698539;83;25812;-61
2022/02/14 02:07:13;;;;;;;12.33;5.70;;;;;;;-1.81;62.89;102255.95;1694572;84;25771;-61
2022/02/14 02:09:43;;;;;;;14.07;5.85;;;;;;;-1.87;62.88;102254.72;1694030;84;25885;-62
2022/02/14 02:12:25;;;;;;;9.13;5.60;;;;;;;-1.84;62.86;102255.55;1666085;83;25875;-61
2022/02/14 02:15:00;;;;;;;10.00;5.75;;;;;;;-1.78;62.80;102252.82;1659924;86;27516;-62
2022/02/14 02:17:34;;;;;;;11.63;5.62;;;;;;;-1.75;62.68;102246.19;1664880;86;25854;-62
2022/02/14 02:20:06;;;;;;;15.43;5.08;;;;;;;-1.71;62.73;102247.48;1665135;86;25809;-61
2022/02/14 02:22:33;;;;;;;14.45;6.25;;;;;;;-1.74;62.67;102247.94;1652408;86;26029;-61
2022/02/14 02:25:01;;;;;;;15.32;6.25;;;;;;;-1.75;62.62;102247.97;1658837;85;25849;-61
2022/02/14 02:27:28;;;;;;;18.42;6.08;;;;;;;-1.76;62.74;102244.91;1662666;84;27452;-61
2022/02/14 02:29:59;;;;;;;11.15;5.87;;;;;;;-1.80;62.73;102244.08;1664551;86;25701;-62
2022/02/14 02:32:28;;;;;;;10.20;5.15;;;;;;;-1.85;63.25;102234.47;1658182;86;26187;-62
2022/02/14 02:34:56;;;;;;;9.43;5.53;;;;;;;-1.94;63.78;102233.70;1660620;85;25884;-62
2022/02/14 02:37:23;;;;;;;17.75;5.37;;;;;;;-2.01;63.77;102228.05;1664787;86;25934;-61
2022/02/14 02:39:50;;;;;;;9.48;5.20;;;;;;;-2.11;64.46;102229.09;1665463;85;27477;-61
2022/02/14 02:42:20;;;;;;;9.58;5.92;;;;;;;-2.18;65.31;102228.70;1657464;86;25948;-61
2022/02/14 02:44:49;;;;;;;12.65;5.58;;;;;;;-2.23;65.77;102228.33;1662933;86;25801;-61
2022/02/14 02:47:18;;;;;;;9.75;5.25;;;;;;;-2.29;65.68;102224.45;1665689;86;25816;-62
2022/02/14 02:49:46;;;;;;;10.60;5.28;;;;;;;-2.32;66.04;102220.95;1661211;85;25834;-62
2022/02/14 02:52:17;;;;;;;11.12;4.87;;;;;;;-2.33;66.20;102225.83;1660262;85;27482;-61
2022/02/14 02:54:45;;;;;;;17.02;5.95;;;;;;;-2.34;66.29;102224.94;1660841;86;25771;-63
2022/02/14 02:57:13;;;;;;;12.98;5.67;;;;;;;-2.36;66.21;102228.92;1661147;85;25558;-63
2022/02/14 02:59:41;;;;;;;12.82;6.30;;;;;;;-2.39;66.73;102229.40;1657275;85;25758;-63
2022/02/14 03:02:08;;;;;;;12.10;6.25;;;;;;;-2.40;66.42;102230.28;1662069;85;25745;-61
2022/02/14 03:04:35;;;;;;;10.55;5.87;;;;;;;-2.41;66.57;102233.81;1654585;85;27858;-62
2022/02/14 03:07:04;;;;;;;9.13;5.53;;;;;;;-2.35;66.43;102235.05;1663531;85;25642;-62
2022/02/14 03:09:31;;;;;;;13.18;5.92;;;;;;;-2.35;66.47;102231.09;1663369;86;25751;-60
2022/02/14 03:11:58;;;;;;;13.98;5.12;;;;;;;-2.37;66.49;102232.87;1659090;84;25879;-61
2022/02/14 03:14:26;;;;;;;13.40;6.12;;;;;;;-2.36;66.52;102235.94;1664584;86;25709;-61
2022/02/14 03:16:53;;;;;;;12.30;5.35;;;;;;;-2.38;66.18;102235.11;1660608;84;27499;-62
2022/02/14 03:19:21;;;;;;;18.52;7.05;;;;;;;-2.35;66.16;102244.27;1661987;84;25795;-61
2022/02/14 03:21:48;;;;;;;12.65;5.55;;;;;;;-2.35;65.88;102239.00;1662741;85;25837;-61
2022/02/14 03:24:15;;;;;;;15.83;6.15;;;;;;;-2.34;65.76;102243.39;1661830;84;25777;-61
2022/02/14 03:26:42;;;;;;;15.08;5.37;;;;;;;-2.33;65.48;102242.96;1663742;85;26030;-61
2022/02/14 03:29:11;;;;;;;15.98;7.30;;;;;;;-2.31;65.56;102243.80;1657902;86;28141;-61
2022/02/14 03:31:37;;;;;;;17.17;6.40;;;;;;;-2.29;65.34;102242.91;1659549;85;25807;-62
2022/02/14 03:34:06;;;;;;;11.03;6.40;;;;;;;-2.27;65.21;102237.61;1657517;84;26400;-61
2022/02/14 03:36:32;;;;;;;17.70;6.15;;;;;;;-2.25;65.06;102241.97;1661446;85;25779;-61
2022/02/14 03:38:59;;;;;;;16.12;6.15;;;;;;;-2.25;64.98;102239.80;1657980;84;25760;-62
2022/02/14 03:41:26;;;;;;;18.27;6.72;;;;;;;-2.23;64.84;102232.72;1664334;86;27487;-62
2022/02/14 03:43:52;;;;;;;16.40;6.85;;;;;;;-2.18;64.92;102240.14;1663426;85;25802;-61
2022/02/14 03:46:19;;;;;;;19.35;6.78;;;;;;;-2.14;64.90;102233.06;1663115;85;25639;-62
2022/02/14 03:48:46;;;;;;;16.45;6.67;;;;;;;-2.10;64.85;102233.02;1662216;85;25671;-61
2022/02/14 03:51:13;;;;;;;12.95;6.47;;;;;;;-2.07;64.61;102226.39;1663285;85;25958;-61
2022/02/14 03:53:40;;;;;;;14.23;6.72;;;;;;;-2.05;64.57;102229.00;1664771;84;27549;-61
2022/02/14 03:56:07;;;;;;;17.85;7.22;;;;;;;-2.06;64.67;102231.20;1666819;86;25705;-61
2022/02/14 03:58:34;;;;;;;12.10;6.37;;;;;;;-2.06;64.58;102231.20;1655732;85;25676;-61
2022/02/14 04:01:01;;;;;;;15.20;6.28;;;;;;;-2.05;64.55;102233.81;1663200;85;26489;-61
2022/02/14 04:03:28;;;;;;;12.60;7.50;;;;;;;-2.04;64.47;102236.02;1658798;85;26315;-62
2022/02/14 04:05:55;;;;;;;18.73;7.50;;;;;;;-2.03;64.53;102238.20;1664679;85;27551;-61
2022/02/14 04:08:22;;;;;;;15.95;6.62;;;;;;;-2.06;64.15;102231.20;1663745;86;25830;-61
2022/02/14 04:10:50;;;;;;;11.35;6.25;;;;;;;-2.10;64.16;102229.48;1650536;86;25848;-61
2022/02/14 04:13:17;;;;;;;16.15;7.05;;;;;;;-2.14;64.05;102228.65;1657996;82;26465;-61
2022/02/14 04:15:44;;;;;;;18.42;7.00;;;;;;;-2.20;64.03;102226.95;1658079;84;25715;-62
2022/02/14 04:18:11;;;;;;;14.53;6.30;;;;;;;-2.20;64.10;102219.51;1661165;85;27543;-60
2022/02/14 04:20:37;;;;;;;18.32;7.25;;;;;;;-2.22;64.05;102219.96;1656642;86;27156;-60
2022/02/14 04:23:05;;;;;;;28.30;7.72;;;;;;;-2.25;63.97;102227.47;1661867;85;26698;-61
2022/02/14 04:25:31;;;;;;;23.95;11.73;;;;;;;-2.29;64.17;102221.82;1659857;84;25786;-61
2022/02/14 04:27:59;;;;;;;17.20;9.60;;;;;;;-2.34;64.25;102213.53;1664901;85;25931;-61
2022/02/14 04:30:29;;;;;;;24.63;9.13;;;;;;;-2.37;64.19;102224.53;1664673;84;27541;-61
2022/02/14 04:32:59;;;;;;;22.37;8.93;;;;;;;-2.39;64.27;102214.91;1662086;85;25782;-61
2022/02/14 04:35:28;;;;;;;19.48;8.40;;;;;;;-2.36;64.39;102210.47;1664966;85;25730;-61
2022/02/14 04:37:59;;;;;;;18.70;8.35;;;;;;;-2.32;64.44;102223.59;1663372;86;25838;-61
2022/02/14 04:40:24;;;;;;;17.27;8.13;;;;;;;-2.30;64.55;102224.03;1665010;86;25828;-61
2022/02/14 04:42:51;;;;;;;19.25;8.10;;;;;;;-2.29;64.46;102228.41;1662236;84;27537;-62
2022/02/14 04:45:17;;;;;;;16.17;8.05;;;;;;;-2.33;64.24;102225.83;1664512;86;25810;-62
2022/02/14 04:47:44;;;;;;;19.62;7.95;;;;;;;-2.35;64.34;102229.78;1663793;86;25523;-61
2022/02/14 04:50:11;;;;;;;20.08;9.03;;;;;;;-2.32;64.43;102218.31;1658915;85;25830;-61
2022/02/14 04:52:38;;;;;;;15.98;8.80;;;;;;;-2.30;64.60;102218.75;1660373;85;25781;-61
2022/02/14 04:55:08;;;;;;;26.45;9.20;;;;;;;-2.31;64.34;102220.06;1657667;86;27468;-61
2022/02/14 04:57:36;;;;;;;20.85;8.45;;;;;;;-2.29;64.44;102230.16;1663819;86;25826;-61
2022/02/14 05:00:08;;;;;;;24.07;9.65;;;;;;;-2.28;64.31;102223.54;1664215;85;25789;-62
2022/02/14 05:02:34;;;;;;;20.45;9.83;;;;;;;-2.31;64.48;102222.70;1667003;86;25850;-61
2022/02/14 05:05:01;;;;;;;20.77;8.88;;;;;;;-2.39;64.16;102226.77;1668555;84;25804;-61
2022/02/14 05:07:28;;;;;;;16.07;10.10;;;;;;;-2.45;64.55;102229.02;1668633;85;27491;-61
2022/02/14 05:09:55;;;;;;;28.20;11.10;;;;;;;-2.50;64.62;102226.00;1664147;84;25808;-61
2022/02/14 05:12:22;;;;;;;42.75;10.90;;;;;;;-2.53;65.21;102230.86;1664585;85;25776;-62
2022/02/14 05:14:48;;;;;;;30.48;12.18;;;;;;;-2.59;64.66;102233.11;1667695;85;26479;-61
2022/02/14 05:17:15;;;;;;;22.87;9.38;;;;;;;-2.61;64.95;102230.08;1668465;86;25778;-61
2022/02/14 05:19:42;;;;;;;22.55;10.30;;;;;;;-2.59;65.28;102234.43;1644761;86;27485;-62
2022/02/14 05:22:10;;;;;;;19.42;8.35;;;;;;;-2.65;65.84;102238.88;1628102;87;25888;-61
2022/02/14 05:24:37;;;;;;;25.65;9.08;;;;;;;-2.69;66.38;102225.73;1665718;85;25527;-62
2022/02/14 05:27:04;;;;;;;40.70;10.75;;;;;;;-2.75;66.75;102228.43;1666322;86;26570;-62
2022/02/14 05:29:32;;;;;;;22.58;10.72;;;;;;;-2.81;66.68;102235.08;1665748;86;25784;-61
2022/02/14 05:31:59;;;;;;;25.95;11.45;;;;;;;-2.77;67.11;102242.52;1665383;86;27937;-62
2022/02/14 05:34:25;;;;;;;23.18;10.15;;;;;;;-2.74;67.15;102239.86;1662283;85;25793;-62
2022/02/14 05:36:53;;;;;;;29.25;12.05;;;;;;;-2.78;67.79;102241.62;1657414;85;25576;-62
2022/02/14 05:39:20;;;;;;;35.15;11.65;;;;;;;-2.80;67.49;102244.73;1660396;85;25841;-62
2022/02/14 05:41:47;;;;;;;53.90;13.20;;;;;;;-2.78;67.66;102244.71;1675660;85;25807;-61
2022/02/14 05:44:14;;;;;;;57.45;11.63;;;;;;;-2.81;67.11;102242.09;1671695;84;27575;-62
2022/02/14 05:46:40;;;;;;;26.25;10.78;;;;;;;-2.76;67.82;102246.44;1665041;85;25800;-62
2022/02/14 05:49:07;;;;;;;33.70;13.30;;;;;;;-2.76;67.66;102254.34;1665110;85;25862;-61
2022/02/14 05:51:34;;;;;;;30.15;11.53;;;;;;;-2.72;67.58;102254.75;1664592;84;25867;-62
2022/02/14 05:54:01;;;;;;;28.05;10.25;;;;;;;-2.65;68.14;102256.89;1667286;85;25801;-61
2022/02/14 05:56:28;;;;;;;25.80;11.43;;;;;;;-2.62;67.93;102256.84;1695662;83;27653;-61
2022/02/14 05:58:55;;;;;;;25.88;10.88;;;;;;;-2.61;68.79;102259.91;1695729;83;25831;-62
2022/02/14 06:01:22;;;;;;;26.93;11.85;;;;;;;-2.61;68.96;102261.69;1689927;83;25816;-60
2022/02/14 06:03:49;;;;;;;39.85;13.30;;;;;;;-2.63;68.46;102261.68;1685832;83;26451;-61
2022/02/14 06:06:16;;;;;;;20.65;10.28;;;;;;;-2.59;68.40;102268.69;1698949;82;25898;-61
2022/02/14 06:08:43;;;;;;;38.78;11.33;;;;;;;-2.48;68.59;102262.44;1695292;83;27881;-61
2022/02/14 06:11:10;;;;;;;23.07;10.98;;;;;;;-2.44;68.41;102259.76;1692017;83;25820;-61
2022/02/14 06:13:37;;;;;;;28.15;12.10;;;;;;;-2.33;68.46;102268.86;1686883;83;25786;-61
2022/02/14 06:16:04;;;;;;;29.05;12.47;;;;;;;-2.22;68.08;102264.35;1695984;82;26505;-61
2022/02/14 06:18:31;;;;;;;29.45;13.88;;;;;;;-2.09;68.35;102265.09;1695619;82;25883;-61
2022/02/14 06:20:58;;;;;;;29.72;15.28;;;;;;;-1.99;68.68;102270.25;1704833;82;27472;-61
2022/02/14 06:23:24;;;;;;;33.00;16.85;;;;;;;-1.87;68.04;102258.67;1699250;82;25814;-60
2022/02/14 06:25:51;;;;;;;39.75;15.68;;;;;;;-1.79;68.19;102264.27;1705147;83;25799;-62
2022/02/14 06:28:18;;;;;;;36.17;12.55;;;;;;;-1.71;68.12;102269.91;1693679;84;26170;-61
2022/02/14 06:30:45;;;;;;;28.17;12.18;;;;;;;-1.67;67.88;102271.17;1705688;82;25790;-62
2022/02/14 06:33:15;;;;;;;16.15;9.48;;;;;;;-1.61;67.80;102263.16;1705472;82;27532;-62
2022/02/14 06:35:42;;;;;;;39.45;10.78;;;;;;;-1.54;67.97;102264.39;1704932;83;25787;-61
2022/02/14 06:38:09;;;;;;;22.20;8.83;;;;;;;-1.48;68.24;102264.32;1697249;82;25985;-61
2022/02/14 06:40:36;;;;;;;21.73;8.98;;;;;;;-1.45;68.28;102265.15;1697517;83;25898;-61
2022/02/14 06:43:03;;;;;;;20.65;8.53;;;;;;;-1.38;68.25;102273.83;1688158;83;25781;-61
2022/02/14 06:45:29;;;;;;;16.73;8.65;;;;;;;-1.34;68.35;102268.94;1698922;83;27468;-61
2022/02/14 06:47:56;;;;;;;18.67;8.98;;;;;;;-1.28;67.92;102265.34;1698776;83;25783;-61
2022/02/14 06:50:23;;;;;;;29.18;10.88;;;;;;;-1.19;68.00;102261.67;1691561;83;25782;-61
2022/02/14 06:52:50;;;;;;;24.20;10.82;;;;;;;-1.14;67.73;102264.67;1691416;84;25797;-61
2022/02/14 06:55:17;;;;;;;23.30;9.78;;;;;;;-1.05;67.61;102268.95;1688837;84;25726;-61
2022/02/14 06:57:44;;;;;;;20.05;8.30;;;;;;;-0.97;67.50;102264.41;1701334;83;27936;-61
2022/02/14 07:00:14;;;;;;;24.30;9.83;;;;;;;-0.91;67.60;102260.80;1705201;83;25883;-61
2022/02/14 07:02:42;;;;;;;23.98;9.70;;;;;;;-0.81;67.68;102272.94;1700123;83;25776;-61
2022/02/14 07:05:21;;;;;;;19.57;9.70;;;;;;;-0.64;67.64;102270.02;1703886;83;25761;-61
2022/02/14 07:07:42;;;;;;;28.15;10.95;;;;;;;-0.56;67.23;102260.64;1725685;82;25762;-61
2022/02/14 07:10:12;;;;;;;24.72;11.05;;;;;;;-0.51;67.09;102261.88;1740679;82;27436;-62
2022/02/14 07:12:39;;;;;;;29.92;9.63;;;;;;;-0.43;67.30;102261.28;1736512;82;25838;-61
2022/02/14 07:15:09;;;;;;;22.30;10.55;;;;;;;-0.29;67.23;102264.10;1710978;82;25739;-62
2022/02/14 07:17:37;;;;;;;27.82;11.70;;;;;;;-0.23;67.31;102267.52;1691686;82;25784;-61
2022/02/14 07:20:06;;;;;;;27.22;10.13;;;;;;;-0.10;67.28;102265.50;1664194;84;25881;-61
2022/02/14 07:22:33;;;;;;;21.33;9.08;;;;;;;0.00;67.03;102259.59;1659341;86;27468;-62
2022/02/14 07:24:59;;;;;;;33.73;11.48;;;;;;;0.04;66.58;102270.98;1688705;83;27223;-62
2022/02/14 07:27:26;;;;;;;21.65;10.13;;;;;;;0.10;66.43;102258.94;1698136;82;26600;-61
2022/02/14 07:29:53;;;;;;;20.90;10.00;;;;;;;0.15;66.24;102265.88;1700448;82;25834;-61
2022/02/14 07:32:20;;;;;;;23.07;9.23;;;;;;;0.22;66.24;102267.95;1688029;83;26070;-62
2022/02/14 07:34:47;;;;;;;20.92;10.48;;;;;;;0.29;66.26;102268.67;1698119;83;27547;-62
2022/02/14 07:37:14;;;;;;;28.38;9.40;;;;;;;0.33;66.03;102266.39;1696113;83;25808;-61
2022/02/14 07:39:41;;;;;;;23.45;10.18;;;;;;;0.37;66.37;102260.57;1696738;82;25721;-61
2022/02/14 07:42:08;;;;;;;24.65;9.78;;;;;;;0.44;66.17;102269.69;1693607;82;25938;-62
2022/02/14 07:44:35;;;;;;;25.48;11.43;;;;;;;0.54;66.11;102267.69;1702715;82;25931;-61
2022/02/14 07:47:03;;;;;;;18.45;9.60;;;;;;;0.62;65.98;102260.91;1698491;83;27474;-61
2022/02/14 07:49:30;;;;;;;27.25;9.60;;;;;;;0.73;66.03;102263.30;1701629;82;25822;-61
2022/02/14 07:51:57;;;;;;;23.90;10.55;;;;;;;0.85;65.86;102256.36;1701854;83;25664;-61
2022/02/14 07:54:24;;;;;;;25.23;11.25;;;;;;;0.96;65.70;102256.13;1699272;83;26981;-61
2022/02/14 07:56:51;;;;;;;23.40;9.65;;;;;;;1.06;65.73;102256.76;1694624;82;25479;-61
2022/02/14 07:59:18;;;;;;;22.15;10.32;;;;;;;1.18;65.64;102260.87;1708825;82;27497;-61
2022/02/14 08:01:45;;;;;;;21.75;9.98;;;;;;;1.27;65.51;102258.46;1737062;82;25688;-61
2022/02/14 08:04:12;;;;;;;26.68;11.18;;;;;;;1.37;65.40;102256.84;1712132;82;25661;-61
2022/02/14 08:06:40;;;;;;;24.80;9.50;;;;;;;1.47;65.45;102254.84;1692424;82;25804;-61
2022/02/14 08:09:10;;;;;;;22.58;10.72;;;;;;;1.56;65.34;102254.59;1694071;83;26070;-61
2022/02/14 08:11:36;;;;;;;17.82;9.10;;;;;;;1.68;65.39;102244.10;1691724;82;27482;-61
2022/02/14 08:14:04;;;;;;;16.48;8.43;;;;;;;1.82;64.79;102245.05;1687111;83;25513;-61
2022/02/14 08:16:33;;;;;;;22.67;10.63;;;;;;;1.91;64.62;102240.39;1694863;82;25762;-61
2022/02/14 08:19:00;;;;;;;24.05;11.60;;;;;;;2.02;64.57;102235.62;1687591;84;25780;-62
2022/02/14 08:21:29;;;;;;;12.18;6.47;;;;;;;2.16;64.28;102231.23;1670545;83;25856;-61
2022/02/14 08:23:57;;;;;;;13.62;5.33;;;;;;;2.32;62.43;102231.64;1695138;83;27462;-61
2022/02/14 08:26:25;;;;;;;12.73;5.47;;;;;;;2.43;61.16;102225.99;1703373;83;25870;-61
2022/02/14 08:28:52;;;;;;;21.70;5.22;;;;;;;2.60;60.71;102225.48;1696745;82;25831;-61
2022/02/14 08:31:19;;;;;;;16.48;5.40;;;;;;;2.72;59.98;102225.09;1699897;82;25772;-61
2022/02/14 08:33:46;;;;;;;18.10;5.10;;;;;;;2.85;58.67;102224.23;1693101;82;25740;-62
2022/02/14 08:36:14;;;;;;;16.05;8.38;;;;;;;2.95;59.18;102232.33;1688981;83;27458;-61
2022/02/14 08:38:41;;;;;;;21.75;9.25;;;;;;;3.08;59.45;102239.87;1692379;82;25865;-61
2022/02/14 08:41:07;;;;;;;18.23;9.95;;;;;;;3.20;59.58;102231.94;1698196;82;25761;-62
2022/02/14 08:43:34;;;;;;;26.93;11.33;;;;;;;3.32;59.96;102224.88;1697180;83;25798;-61
2022/02/14 08:46:01;;;;;;;32.20;9.88;;;;;;;3.49;60.03;102222.08;1697541;82;25792;-59
2022/02/14 08:48:28;;;;;;;16.12;7.80;;;;;;;3.67;59.31;102222.75;1691758;82;27452;-61
2022/02/14 08:50:54;;;;;;;26.02;5.20;;;;;;;3.85;58.87;102211.02;1690110;82;25823;-61
2022/02/14 08:53:23;;;;;;;8.55;4.30;;;;;;;4.06;56.04;102210.22;1665434;84;25793;-61
2022/02/14 08:55:50;;;;;;;19.55;4.28;;;;;;;4.24;54.83;102221.09;1698937;82;25791;-61
2022/02/14 08:58:17;;;;;;;21.75;4.05;;;;;;;4.38;54.01;102205.91;1694819;82;25906;-62
2022/02/14 09:00:44;;;;;;;8.53;3.77;;;;;;;4.54;53.52;102209.69;1692897;84;27551;-62
2022/02/14 09:03:11;;;;;;;19.40;4.20;;;;;;;4.73;53.38;102207.61;1687506;84;25854;-61
2022/02/14 09:05:39;;;;;;;16.85;6.90;;;;;;;4.90;52.88;102204.70;1691817;82;25741;-62
2022/02/14 09:08:06;;;;;;;17.62;4.10;;;;;;;5.08;52.88;102203.05;1703248;82;25781;-61
2022/02/14 09:10:35;;;;;;;13.88;4.40;;;;;;;5.29;51.33;102198.14;1691608;84;25703;-62
2022/02/14 09:13:02;;;;;;;15.65;4.00;;;;;;;5.48;52.02;102199.52;1693669;83;27470;-61
2022/02/14 09:15:29;;;;;;;4.67;3.20;;;;;;;5.76;51.56;102194.77;1668616;84;25785;-62
2022/02/14 09:17:56;;;;;;;12.40;5.30;;;;;;;6.07;50.01;102192.91;1662432;84;25731;-62
2022/02/14 09:20:23;;;;;;;11.55;4.22;;;;;;;6.50;49.08;102193.13;1675529;83;25860;-62
2022/02/14 09:22:51;;;;;;;14.73;4.45;;;;;;;7.22;48.68;102194.00;1656542;84;26278;-62
2022/02/14 09:25:18;;;;;;;15.85;4.45;;;;;;;8.15;46.76;102191.25;1675413;84;27896;-62
2022/02/14 09:27:45;;;;;;;18.85;4.53;;;;;;;8.95;45.40;102178.75;1669781;84;25744;-62
2022/02/14 09:30:13;;;;;;;12.95;4.85;;;;;;;9.67;44.25;102173.01;1664569;83;25780;-62
2022/02/14 09:32:40;;;;;;;13.83;3.83;;;;;;;9.82;43.99;102172.99;1665159;84;25925;-62
2022/02/14 09:35:08;;;;;;;17.23;3.98;;;;;;;10.19;41.55;102171.99;1665306;83;25838;-62
2022/02/14 09:37:35;;;;;;;9.63;3.67;;;;;;;10.63;42.43;102169.58;1657161;84;27519;-62
2022/02/14 09:40:05;;;;;;;8.75;3.77;;;;;;;11.33;41.04;102162.69;1647521;84;25781;-62
2022/02/14 09:42:32;;;;;;;25.27;3.77;;;;;;;11.89;39.25;102162.33;1669187;83;25786;-62
2022/02/14 09:44:59;;;;;;;28.07;4.72;;;;;;;12.25;38.28;102159.77;1659230;85;26475;-62
2022/02/14 09:47:26;;;;;;;16.30;3.62;;;;;;;12.18;38.65;102156.69;1655744;84;25691;-63
2022/02/14 09:49:57;;;;;;;21.73;3.75;;;;;;;11.87;38.14;102156.17;1664805;84;27476;-62
2022/02/14 09:52:24;;;;;;;11.95;3.90;;;;;;;12.09;38.15;102156.86;1665068;84;26612;-62
2022/02/14 09:54:51;;;;;;;13.15;4.05;;;;;;;12.61;36.49;102148.55;1660877;84;25852;-63
2022/02/14 09:57:18;;;;;;;9.38;4.03;;;;;;;13.07;35.79;102136.09;1664943;84;25741;-62
2022/02/14 09:59:45;;;;;;;11.25;3.65;;;;;;;13.56;35.41;102130.04;1654697;84;25826;-63
2022/02/14 10:02:22;;;;;;;8.48;3.42;;;;;;;14.06;34.76;102130.48;1662025;83;28189;-63
2022/02/14 10:05:18;;;;;;;12.68;3.20;;;;;;;14.48;33.06;102124.82;1656272;85;25797;-62
2022/02/14 10:07:52;;;;;;;15.13;4.12;;;;;;;14.74;32.14;102130.78;1656875;85;25832;-63
2022/02/14 10:10:22;;;;;;;4.80;2.80;;;;;;;14.96;30.16;102116.27;1657401;84;25804;-63
2022/02/14 10:12:59;;;;;;;7.92;2.62;;;;;;;14.85;30.22;102116.31;1666366;85;25801;-63
2022/02/14 10:15:24;;;;;;;10.20;2.90;;;;;;;15.17;31.01;102110.83;1696066;84;27485;-63
2022/02/14 10:17:59;;;;;;;9.03;3.35;;;;;;;15.56;28.93;102106.09;1668122;83;25986;-63
2022/02/14 10:20:27;;;;;;;9.58;3.47;;;;;;;15.65;29.67;102099.00;1657879;85;26435;-63
2022/02/14 10:23:03;;;;;;;12.40;4.22;;;;;;;15.77;29.43;102101.11;1685307;83;25923;-63
2022/02/14 10:25:40;;;;;;;18.02;5.25;;;;;;;16.02;28.79;102093.48;1684567;83;25840;-63
2022/02/14 10:28:25;;;;;;;13.20;3.90;;;;;;;16.31;27.95;102077.73;1685888;84;28173;-63
2022/02/14 10:31:08;;;;;;;12.00;3.85;;;;;;;16.40;27.23;102083.67;1681915;84;25743;-63
2022/02/14 10:33:48;;;;;;;16.75;3.08;;;;;;;16.50;27.26;102079.59;1687178;84;25722;-63
2022/02/14 10:36:30;;;;;;;8.55;3.50;;;;;;;16.67;26.60;102068.02;1690883;84;26724;-63
2022/02/14 10:39:25;;;;;;;11.73;4.28;;;;;;;16.71;25.76;102058.56;1697796;84;26086;-62
2022/02/14 10:42:09;;;;;;;10.70;4.67;;;;;;;16.61;26.64;102065.02;1697594;84;27554;-63
2022/02/14 10:47:47;;;;;;;6.97;3.33;;;;;;;17.30;25.33;102057.06;1690665;82;25799;-63
2022/02/14 10:50:25;;;;;;;10.13;4.15;;;;;;;17.24;25.06;102057.67;1684808;85;26490;-63
2022/02/14 10:52:58;;;;;;;8.03;3.70;;;;;;;17.66;24.87;102048.17;1681589;84;25908;-63
2022/02/14 10:55:37;;;;;;;9.88;2.95;;;;;;;17.98;23.54;102056.38;1638446;86;26872;-63
2022/02/14 10:58:04;;;;;;;7.92;3.10;;;;;;;17.82;23.84;102054.32;1629062;86;25929;-63
2022/02/14 11:00:37;;;;;;;9.93;2.70;;;;;;;17.88;22.68;102046.05;1687823;83;25691;-63
2022/02/14 11:03:09;;;;;;;8.05;3.15;;;;;;;17.83;23.36;102033.74;1689980;84;25979;-63
2022/02/14 11:05:40;;;;;;;7.08;2.72;;;;;;;17.86;23.22;102032.58;1685442;83;25792;-63
2022/02/14 11:08:09;;;;;;;12.78;3.35;;;;;;;18.09;22.36;102034.90;1685968;83;28290;-63
2022/02/14 11:10:44;;;;;;;8.63;2.98;;;;;;;17.98;22.40;102030.03;1716300;82;25881;-63
2022/02/14 11:13:13;;;;;;;16.10;3.22;;;;;;;17.95;21.97;102026.73;1692569;83;25702;-63
2022/02/14 11:15:42;;;;;;;6.85;2.40;;;;;;;17.77;22.65;102019.40;1699105;82;25843;-64
2022/02/14 11:18:18;;;;;;;10.23;2.70;;;;;;;17.83;21.44;102029.66;1703553;83;25815;-63
2022/02/14 11:20:47;;;;;;;8.88;2.80;;;;;;;17.86;22.23;102029.02;1672943;84;27463;-63
2022/02/14 11:23:16;;;;;;;9.15;3.22;;;;;;;18.06;21.50;102017.01;1689875;84;25773;-63
2022/02/14 11:26:04;;;;;;;8.90;3.47;;;;;;;18.15;22.16;102014.69;1691342;83;25872;-63
2022/02/14 11:28:48;;;;;;;4.37;2.12;;;;;;;18.52;22.01;102010.07;1689654;84;26509;-64